Time;durP1;ratioP1;P1;durP2;ratioP2;P2;SDS_P1;SDS_P2;PMS_P1;PMS_P2;Temp;Humidity;BMP_temperature;BMP_pressure;BME280_temperature;BME280_humidity;BME280_pressure;Samples;Min_cycle;Max_cycle;Signal;HPM_P1;HPM_P2
2022/03/15 00:02:59;;;;;;;63.08;29.52;;;;;;;6.58;100.00;102716.34;10192046;28;20462;-70
2022/03/15 00:07:56;;;;;;;54.65;27.73;;;;;;;6.51;100.00;102730.06;10190103;28;20069;-73
2022/03/15 00:12:54;;;;;;;58.47;29.55;;;;;;;6.50;100.00;102739.28;10202792;28;20069;-74
2022/03/15 00:17:51;;;;;;;51.33;25.35;;;;;;;6.46;100.00;102724.53;10190642;28;20081;-73
2022/03/15 00:22:50;;;;;;;54.53;27.35;;;;;;;6.36;100.00;102735.19;10216942;28;20466;-74
2022/03/15 00:27:50;;;;;;;49.38;25.90;;;;;;;6.37;100.00;102731.41;10191916;28;20050;-74
2022/03/15 00:32:47;;;;;;;62.50;28.05;;;;;;;6.26;100.00;102734.97;10204558;28;20054;-70
2022/03/15 00:37:48;;;;;;;45.03;23.67;;;;;;;6.46;100.00;102740.84;10211660;28;20582;-70
2022/03/15 00:42:49;;;;;;;40.03;23.35;;;;;;;6.47;100.00;102731.59;10195771;28;20092;-70
2022/03/15 00:47:46;;;;;;;51.08;26.05;;;;;;;6.44;100.00;102732.09;10208075;28;20050;-71
2022/03/15 00:52:42;;;;;;;56.65;25.85;;;;;;;6.44;100.00;102726.66;10215848;28;20074;-73
2022/03/15 00:57:39;;;;;;;51.05;25.17;;;;;;;6.38;100.00;102727.59;10205558;28;20050;-73
2022/03/15 01:02:36;;;;;;;58.00;27.77;;;;;;;6.40;100.00;102730.09;10212509;28;20045;-74
2022/03/15 01:07:33;;;;;;;57.47;29.27;;;;;;;6.46;100.00;102726.44;10214710;28;20095;-70
2022/03/15 01:12:29;;;;;;;72.00;31.38;;;;;;;6.43;100.00;102725.03;10206055;28;20077;-70
2022/03/15 01:17:26;;;;;;;73.05;32.05;;;;;;;6.27;100.00;102739.34;10202298;28;20073;-73
2022/03/15 01:22:22;;;;;;;65.20;27.55;;;;;;;6.35;100.00;102740.88;10214409;28;20305;-73
2022/03/15 01:27:19;;;;;;;75.20;29.50;;;;;;;6.29;100.00;102729.91;10205615;28;20091;-70
2022/03/15 01:32:16;;;;;;;64.53;29.35;;;;;;;6.27;100.00;102729.31;10210523;28;20084;-70
2022/03/15 01:37:12;;;;;;;69.40;29.92;;;;;;;6.24;100.00;102739.81;10193093;28;20046;-71
2022/03/15 01:42:09;;;;;;;72.10;32.58;;;;;;;6.23;100.00;102735.47;10228565;28;20456;-70
2022/03/15 01:47:05;;;;;;;59.80;27.35;;;;;;;6.22;100.00;102733.78;10201610;28;20049;-70
2022/03/15 01:52:02;;;;;;;71.20;29.48;;;;;;;6.37;100.00;102731.41;10196178;28;20695;-74
2022/03/15 01:56:59;;;;;;;57.35;25.73;;;;;;;6.36;100.00;102729.78;10196061;28;20542;-74
2022/03/15 02:01:56;;;;;;;56.85;24.70;;;;;;;6.46;100.00;102724.53;10192088;28;20037;-73
2022/03/15 02:07:09;;;;;;;56.65;25.85;;;;;;;6.33;100.00;102738.38;10190945;28;20121;-73
2022/03/15 02:12:07;;;;;;;50.25;24.50;;;;;;;6.24;100.00;102745.25;10195002;28;20088;-72
2022/03/15 02:17:04;;;;;;;53.42;25.77;;;;;;;6.31;100.00;102748.66;10193925;28;20045;-70
2022/03/15 02:22:00;;;;;;;57.20;25.00;;;;;;;6.23;100.00;102740.88;10195408;28;20080;-71
2022/03/15 02:26:57;;;;;;;58.80;26.10;;;;;;;6.26;100.00;102737.69;10193660;28;20462;-70
2022/03/15 02:31:53;;;;;;;56.28;26.30;;;;;;;6.35;100.00;102741.69;10194913;28;20141;-70
2022/03/15 02:36:50;;;;;;;68.13;29.83;;;;;;;6.10;100.00;102737.38;10193656;28;20050;-70
2022/03/15 02:41:46;;;;;;;59.15;27.92;;;;;;;6.13;100.00;102738.78;10194034;28;20555;-69
2022/03/15 02:46:47;;;;;;;60.75;24.25;;;;;;;6.19;100.00;102750.56;10193623;28;20558;-70
2022/03/15 02:51:44;;;;;;;60.85;26.58;;;;;;;6.09;100.00;102741.13;10201801;28;20495;-69
2022/03/15 02:56:47;;;;;;;60.95;27.15;;;;;;;6.15;100.00;102733.09;10192421;28;20100;-69
2022/03/15 03:01:45;;;;;;;55.50;26.98;;;;;;;6.10;100.00;102741.97;10191825;28;20061;-70
2022/03/15 03:06:49;;;;;;;59.58;27.23;;;;;;;6.03;100.00;102742.06;10189240;28;20389;-68
2022/03/15 03:11:46;;;;;;;62.28;27.92;;;;;;;5.95;100.00;102737.03;10191972;28;20073;-68
2022/03/15 03:16:43;;;;;;;55.40;27.42;;;;;;;5.97;100.00;102742.22;10190905;28;20128;-68
2022/03/15 03:21:40;;;;;;;54.33;26.13;;;;;;;5.99;100.00;102746.34;10192284;28;20414;-70
2022/03/15 03:26:38;;;;;;;51.10;25.92;;;;;;;6.00;100.00;102748.00;10190847;28;20049;-70
2022/03/15 03:31:42;;;;;;;47.70;23.10;;;;;;;5.68;100.00;102740.16;10191879;28;20053;-69
2022/03/15 03:36:39;;;;;;;52.33;25.77;;;;;;;5.82;100.00;102745.38;10189365;28;20431;-70
2022/03/15 03:41:55;;;;;;;45.83;23.15;;;;;;;5.79;100.00;102752.09;10192165;28;20050;-70
2022/03/15 03:46:52;;;;;;;54.85;27.33;;;;;;;5.89;100.00;102746.94;10205118;28;20045;-69
2022/03/15 03:51:48;;;;;;;53.03;25.23;;;;;;;5.89;100.00;102740.66;10189074;28;20046;-70
2022/03/15 03:56:45;;;;;;;49.78;25.67;;;;;;;5.82;100.00;102748.09;10199057;28;20080;-70
2022/03/15 04:01:42;;;;;;;66.97;29.38;;;;;;;5.72;100.00;102745.16;10207595;28;20077;-70
2022/03/15 04:06:39;;;;;;;65.00;28.52;;;;;;;5.65;100.00;102746.06;10188497;28;20050;-69
2022/03/15 04:11:41;;;;;;;83.55;33.78;;;;;;;5.53;100.00;102747.97;10189637;28;20078;-69
2022/03/15 04:16:38;;;;;;;66.85;29.25;;;;;;;5.66;100.00;102757.75;10189551;28;20556;-70
2022/03/15 04:21:35;;;;;;;79.88;32.83;;;;;;;5.69;100.00;102752.69;10190008;28;20038;-70
2022/03/15 04:26:31;;;;;;;84.47;34.38;;;;;;;5.69;100.00;102757.31;10192342;28;20086;-71
2022/03/15 04:31:28;;;;;;;89.30;34.70;;;;;;;5.83;100.00;102752.47;10198128;28;20046;-68
2022/03/15 04:36:24;;;;;;;101.82;41.40;;;;;;;5.76;100.00;102746.34;10196850;28;20132;-69
2022/03/15 04:41:21;;;;;;;113.38;41.92;;;;;;;5.80;100.00;102750.22;10197997;28;20494;-69
2022/03/15 04:46:18;;;;;;;118.18;42.30;;;;;;;5.80;100.00;102739.34;10197048;28;20074;-69
2022/03/15 04:51:14;;;;;;;120.30;43.53;;;;;;;5.81;100.00;102741.03;10196796;28;20041;-69
2022/03/15 04:56:15;;;;;;;120.15;45.83;;;;;;;5.91;100.00;102735.81;10195832;28;20049;-70
2022/03/15 05:01:11;;;;;;;123.53;43.92;;;;;;;5.94;100.00;102732.66;10190176;28;20140;-70
2022/03/15 05:06:08;;;;;;;127.88;42.58;;;;;;;6.03;100.00;102731.22;10190945;28;20492;-70
2022/03/15 05:11:08;;;;;;;123.90;44.75;;;;;;;6.02;100.00;102728.75;10198845;28;20659;-70
2022/03/15 05:16:04;;;;;;;138.88;46.28;;;;;;;6.01;100.00;102733.38;10189289;28;20038;-69
2022/03/15 05:21:02;;;;;;;123.00;43.40;;;;;;;5.94;100.00;102727.25;10178361;28;20038;-72
2022/03/15 05:25:59;;;;;;;124.53;43.72;;;;;;;5.86;100.00;102725.66;10187215;28;20112;-72
2022/03/15 05:30:56;;;;;;;115.93;41.83;;;;;;;5.91;100.00;102733.09;10195561;28;20080;-70
2022/03/15 05:35:54;;;;;;;119.53;42.22;;;;;;;5.89;100.00;102729.78;10197081;28;20109;-66
2022/03/15 05:40:51;;;;;;;103.32;38.50;;;;;;;5.97;100.00;102720.50;10187389;28;20635;-69
2022/03/15 05:45:48;;;;;;;125.38;39.63;;;;;;;5.97;100.00;102726.75;10194094;28;20045;-69
2022/03/15 05:50:46;;;;;;;107.47;39.25;;;;;;;5.93;100.00;102730.16;10182903;28;20042;-69
2022/03/15 05:55:43;;;;;;;102.80;34.90;;;;;;;5.88;100.00;102728.16;10187275;28;20056;-69
2022/03/15 06:00:40;;;;;;;98.43;33.92;;;;;;;5.82;100.00;102726.38;10180584;28;20050;-69
2022/03/15 06:05:38;;;;;;;105.57;37.67;;;;;;;5.83;100.00;102736.19;10186821;28;20069;-69
2022/03/15 06:10:35;;;;;;;109.57;38.60;;;;;;;5.87;100.00;102731.91;10184315;28;20132;-70
2022/03/15 06:15:31;;;;;;;100.75;34.55;;;;;;;5.78;100.00;102738.75;10182565;28;20073;-69
2022/03/15 06:20:28;;;;;;;90.57;33.55;;;;;;;5.72;100.00;102737.00;10182819;28;20139;-71
2022/03/15 06:25:26;;;;;;;106.78;32.90;;;;;;;5.67;100.00;102738.53;10190860;28;20532;-71
2022/03/15 06:30:24;;;;;;;83.63;31.00;;;;;;;5.44;100.00;102746.66;10189304;28;20132;-71
2022/03/15 06:35:20;;;;;;;90.35;33.38;;;;;;;5.31;100.00;102744.13;10183073;28;20116;-71
2022/03/15 06:40:21;;;;;;;81.05;31.58;;;;;;;5.41;100.00;102742.53;10184296;28;20507;-71
2022/03/15 06:45:19;;;;;;;61.80;27.42;;;;;;;5.45;100.00;102740.16;10184166;28;20091;-71
2022/03/15 06:50:16;;;;;;;69.30;31.33;;;;;;;5.26;100.00;102744.84;10176360;28;20104;-71
2022/03/15 06:55:13;;;;;;;65.20;31.75;;;;;;;5.22;100.00;102740.94;10175018;28;20041;-70
2022/03/15 07:00:13;;;;;;;79.57;31.30;;;;;;;5.46;100.00;102736.38;10186637;28;20060;-70
2022/03/15 07:05:09;;;;;;;88.57;31.50;;;;;;;5.54;100.00;102738.75;10186351;28;20107;-70
2022/03/15 07:10:09;;;;;;;77.78;30.80;;;;;;;5.40;100.00;102732.72;10188471;28;20507;-70
2022/03/15 07:15:06;;;;;;;80.10;31.88;;;;;;;5.51;100.00;102735.69;10187461;28;20046;-70
2022/03/15 07:20:03;;;;;;;91.97;33.38;;;;;;;5.49;100.00;102741.34;10188079;28;20093;-71
2022/03/15 07:25:00;;;;;;;60.28;28.55;;;;;;;5.49;100.00;102753.00;10186363;28;20495;-70
2022/03/15 07:29:56;;;;;;;69.50;32.20;;;;;;;5.54;100.00;102755.03;10189971;28;20550;-70
2022/03/15 07:34:53;;;;;;;61.83;28.98;;;;;;;5.59;100.00;102752.47;10187929;28;20073;-71
2022/03/15 07:39:49;;;;;;;64.68;32.22;;;;;;;5.68;100.00;102745.59;10186924;28;20074;-70
2022/03/15 07:44:46;;;;;;;63.38;32.38;;;;;;;5.77;100.00;102764.25;10187614;28;20034;-71
2022/03/15 07:49:43;;;;;;;59.58;30.90;;;;;;;5.82;100.00;102759.75;10188126;28;20527;-70
2022/03/15 07:54:39;;;;;;;70.50;32.03;;;;;;;5.84;100.00;102764.97;10187114;28;20037;-71
2022/03/15 07:59:36;;;;;;;69.68;33.20;;;;;;;6.04;100.00;102770.09;10186289;28;20046;-71
2022/03/15 08:04:33;;;;;;;69.70;32.80;;;;;;;6.02;100.00;102766.78;10186810;28;20138;-71
2022/03/15 08:09:29;;;;;;;83.78;38.15;;;;;;;6.13;100.00;102776.81;10187002;28;20089;-71
2022/03/15 08:14:27;;;;;;;79.85;37.67;;;;;;;6.22;100.00;102779.97;10188125;28;20503;-71
2022/03/15 08:19:28;;;;;;;82.82;37.75;;;;;;;6.35;100.00;102776.19;10186577;28;20085;-71
2022/03/15 08:24:29;;;;;;;92.20;41.78;;;;;;;6.17;100.00;102763.56;10188222;28;20922;-71
2022/03/15 08:29:26;;;;;;;90.68;42.25;;;;;;;6.28;100.00;102760.00;10186497;28;20515;-71
2022/03/15 08:34:29;;;;;;;85.75;40.50;;;;;;;6.46;100.00;102746.28;10184546;28;20056;-71
2022/03/15 08:39:26;;;;;;;104.45;46.45;;;;;;;6.18;100.00;102746.22;10178788;28;20480;-70
2022/03/15 08:44:23;;;;;;;91.10;43.85;;;;;;;6.55;100.00;102737.75;10182625;28;20050;-71
2022/03/15 08:49:21;;;;;;;88.13;40.35;;;;;;;6.64;100.00;102741.75;10180945;28;20100;-71
2022/03/15 08:54:18;;;;;;;85.25;41.67;;;;;;;6.90;100.00;102741.16;10182331;28;20128;-71
2022/03/15 08:59:15;;;;;;;79.30;40.33;;;;;;;6.62;100.00;102738.44;10180870;28;20049;-71
2022/03/15 09:04:12;;;;;;;71.38;37.72;;;;;;;6.90;100.00;102741.16;10178887;28;20092;-71
2022/03/15 09:09:09;;;;;;;60.45;35.13;;;;;;;7.18;100.00;102731.31;10174747;28;20726;-70
2022/03/15 09:14:05;;;;;;;59.55;34.70;;;;;;;7.27;100.00;102729.84;10181666;28;20068;-70
2022/03/15 09:19:01;;;;;;;51.83;30.67;;;;;;;7.16;100.00;102722.56;10180957;28;20108;-69
2022/03/15 09:23:58;;;;;;;54.58;33.80;;;;;;;7.54;100.00;102724.56;10176056;28;20117;-69
2022/03/15 09:28:55;;;;;;;55.15;31.35;;;;;;;7.67;100.00;102717.94;10177559;28;20081;-69
2022/03/15 09:33:51;;;;;;;48.05;30.08;;;;;;;7.78;100.00;102718.94;10184341;28;20093;-73
2022/03/15 09:38:48;;;;;;;46.55;28.67;;;;;;;7.90;100.00;102711.47;10193353;28;20045;-69
2022/03/15 09:43:45;;;;;;;48.53;28.63;;;;;;;8.13;100.00;102701.44;10193802;28;20068;-70
2022/03/15 09:48:42;;;;;;;40.47;25.45;;;;;;;8.34;100.00;102697.06;10188022;28;20312;-71
2022/03/15 09:53:41;;;;;;;43.72;27.00;;;;;;;8.43;100.00;102698.28;10187937;28;20054;-70
2022/03/15 09:58:37;;;;;;;47.17;29.35;;;;;;;8.27;100.00;102693.72;10182640;28;20065;-70
2022/03/15 10:03:35;;;;;;;40.25;27.08;;;;;;;8.56;100.00;102692.47;10184405;28;20137;-70
2022/03/15 10:08:34;;;;;;;35.42;20.38;;;;;;;8.64;100.00;102678.34;10184973;28;20037;-70
2022/03/15 10:13:31;;;;;;;33.28;19.60;;;;;;;8.58;100.00;102673.09;10187282;28;20084;-69
2022/03/15 10:18:28;;;;;;;24.40;15.35;;;;;;;8.79;100.00;102674.13;10189364;28;20100;-70
2022/03/15 10:23:29;;;;;;;24.48;15.27;;;;;;;8.86;100.00;102663.81;10192507;28;20046;-70
2022/03/15 10:28:27;;;;;;;24.20;14.05;;;;;;;8.97;100.00;102654.66;10206413;28;20046;-70
2022/03/15 10:33:24;;;;;;;25.25;14.27;;;;;;;8.87;100.00;102649.13;10187333;28;20161;-70
2022/03/15 10:38:21;;;;;;;23.77;13.32;;;;;;;9.16;100.00;102652.34;10186411;28;20034;-70
2022/03/15 10:43:23;;;;;;;26.83;14.20;;;;;;;9.33;100.00;102641.31;10186327;28;20038;-70
2022/03/15 10:48:24;;;;;;;25.77;14.00;;;;;;;9.45;100.00;102638.38;10185023;28;20050;-70
2022/03/15 10:53:26;;;;;;;21.92;13.45;;;;;;;9.46;100.00;102637.28;10183459;28;20061;-70
2022/03/15 10:58:23;;;;;;;23.73;12.82;;;;;;;9.64;100.00;102625.09;10194768;28;20046;-70
2022/03/15 11:03:25;;;;;;;21.42;11.77;;;;;;;9.68;100.00;102620.75;10187849;28;20050;-71
2022/03/15 11:08:22;;;;;;;20.75;13.07;;;;;;;9.78;100.00;102609.88;10186216;28;20255;-71
2022/03/15 11:13:28;;;;;;;23.20;11.75;;;;;;;9.87;100.00;102602.81;10191259;28;20152;-70
2022/03/15 11:18:30;;;;;;;18.08;11.65;;;;;;;9.97;100.00;102598.47;10187757;28;20057;-70
2022/03/15 11:23:28;;;;;;;23.43;12.23;;;;;;;9.90;100.00;102591.34;10190848;28;20046;-70
2022/03/15 11:28:33;;;;;;;22.23;10.98;;;;;;;9.97;100.00;102585.63;10188523;28;20486;-70
2022/03/15 11:33:31;;;;;;;22.25;11.48;;;;;;;10.11;100.00;102583.22;10189822;28;20509;-70
2022/03/15 11:38:28;;;;;;;26.70;11.75;;;;;;;10.20;100.00;102567.94;10189211;28;20081;-71
2022/03/15 11:43:33;;;;;;;24.50;12.65;;;;;;;10.30;100.00;102562.53;10184014;28;20081;-69
2022/03/15 11:48:46;;;;;;;22.10;11.32;;;;;;;10.38;100.00;102565.81;10180628;28;20096;-67
2022/03/15 11:54:08;;;;;;;23.55;12.00;;;;;;;10.53;100.00;102549.41;10183617;28;20084;-67
2022/03/15 11:59:04;;;;;;;26.40;12.55;;;;;;;10.81;100.00;102558.16;10183241;28;20475;-67
2022/03/15 12:04:02;;;;;;;25.20;12.73;;;;;;;10.91;100.00;102539.03;10182636;28;20153;-69
2022/03/15 12:09:02;;;;;;;24.48;12.63;;;;;;;11.04;100.00;102535.69;10182598;28;20130;-69
2022/03/15 12:14:01;;;;;;;26.80;13.65;;;;;;;10.94;100.00;102527.50;10184735;28;20072;-69
2022/03/15 12:19:14;;;;;;;26.13;13.10;;;;;;;10.85;100.00;102523.69;10187379;28;20073;-70
2022/03/15 12:24:16;;;;;;;20.53;13.07;;;;;;;10.99;100.00;102519.28;10180994;28;20464;-70
2022/03/15 12:29:14;;;;;;;20.30;11.63;;;;;;;11.01;100.00;102517.09;10187845;28;20507;-70
2022/03/15 12:34:15;;;;;;;25.88;12.57;;;;;;;11.11;100.00;102506.13;10188147;28;20065;-70
2022/03/15 12:39:15;;;;;;;24.02;11.02;;;;;;;11.30;100.00;102497.31;10186383;28;20049;-70
2022/03/15 12:44:12;;;;;;;19.23;9.80;;;;;;;11.26;100.00;102486.09;10188696;28;20808;-70
2022/03/15 12:49:13;;;;;;;23.35;9.57;;;;;;;11.37;100.00;102482.22;10193670;28;20057;-69
2022/03/15 12:54:11;;;;;;;24.98;11.55;;;;;;;11.45;100.00;102478.06;10197078;28;20093;-70
2022/03/15 12:59:14;;;;;;;21.10;9.93;;;;;;;11.38;100.00;102466.63;10186854;28;20531;-70
2022/03/15 13:04:12;;;;;;;22.15;10.27;;;;;;;11.42;100.00;102462.22;10195136;28;20046;-70
2022/03/15 13:09:08;;;;;;;23.65;9.73;;;;;;;11.72;100.00;102449.44;10193062;28;20100;-69
2022/03/15 13:14:05;;;;;;;27.33;10.45;;;;;;;11.77;100.00;102443.94;10192515;28;20153;-69
2022/03/15 13:19:01;;;;;;;24.15;9.50;;;;;;;11.97;100.00;102441.09;10187710;28;20498;-69
2022/03/15 13:24:07;;;;;;;18.25;8.23;;;;;;;12.30;100.00;102437.81;10189975;28;20500;-69
2022/03/15 13:29:06;;;;;;;20.10;8.88;;;;;;;12.58;100.00;102425.22;10186815;28;20567;-69
2022/03/15 13:34:03;;;;;;;20.23;9.52;;;;;;;13.04;100.00;102425.53;10188834;28;20141;-69
2022/03/15 13:39:04;;;;;;;20.40;9.68;;;;;;;13.22;100.00;102415.69;10185297;28;20145;-70
2022/03/15 13:44:01;;;;;;;18.92;9.73;;;;;;;13.24;100.00;102402.47;10185049;28;20041;-69
2022/03/15 13:49:01;;;;;;;22.52;9.55;;;;;;;13.18;100.00;102400.94;10187232;28;20048;-70
2022/03/15 13:54:16;;;;;;;24.38;11.38;;;;;;;13.03;100.00;102398.38;10189805;28;20452;-69
2022/03/15 13:59:15;;;;;;;21.83;11.73;;;;;;;13.04;100.00;102392.59;10188359;28;20633;-70
2022/03/15 14:04:15;;;;;;;30.75;13.18;;;;;;;13.18;100.00;102389.94;10187549;28;20046;-70
2022/03/15 14:09:26;;;;;;;23.65;11.13;;;;;;;13.21;100.00;102389.34;10187459;28;20054;-70
2022/03/15 14:14:24;;;;;;;27.08;13.18;;;;;;;13.04;100.00;102384.34;10189320;28;20507;-69
2022/03/15 14:19:20;;;;;;;26.90;15.20;;;;;;;12.87;100.00;102380.44;10192045;28;20046;-70
2022/03/15 14:24:26;;;;;;;24.67;13.15;;;;;;;12.68;100.00;102378.47;10191994;28;20631;-70
2022/03/15 14:29:28;;;;;;;25.25;12.32;;;;;;;12.49;100.00;102374.84;10191433;28;20054;-64
2022/03/15 14:34:26;;;;;;;25.40;13.48;;;;;;;12.46;100.00;102376.22;10185086;28;20069;-64
2022/03/15 14:39:31;;;;;;;20.48;11.88;;;;;;;12.36;100.00;102379.88;10185468;28;20735;-64
2022/03/15 14:44:29;;;;;;;24.30;12.30;;;;;;;12.21;100.00;102372.63;10185524;28;20034;-64
2022/03/15 14:49:26;;;;;;;24.33;12.05;;;;;;;12.20;100.00;102368.22;10185018;28;20053;-64
2022/03/15 14:54:23;;;;;;;24.95;10.95;;;;;;;12.15;100.00;102371.03;10186714;28;20496;-64
2022/03/15 14:59:19;;;;;;;23.02;11.07;;;;;;;12.11;100.00;102358.19;10184260;28;20045;-64
2022/03/15 15:04:16;;;;;;;25.95;11.38;;;;;;;12.08;100.00;102364.25;10176344;28;20077;-64
2022/03/15 15:09:12;;;;;;;23.33;10.98;;;;;;;12.00;100.00;102369.25;10188894;28;20481;-64
2022/03/15 15:14:09;;;;;;;21.05;10.82;;;;;;;11.88;100.00;102360.59;10189476;28;20109;-64
2022/03/15 15:19:11;;;;;;;24.27;11.75;;;;;;;11.95;100.00;102361.06;10189368;28;20049;-65
2022/03/15 15:24:08;;;;;;;22.48;10.98;;;;;;;11.94;100.00;102355.88;10190449;28;20085;-64
2022/03/15 15:29:04;;;;;;;23.10;11.20;;;;;;;11.91;100.00;102360.00;10189463;28;20080;-64
2022/03/15 15:34:01;;;;;;;23.33;12.07;;;;;;;11.93;100.00;102362.47;10189670;28;20431;-64
2022/03/15 15:39:01;;;;;;;21.90;11.77;;;;;;;11.93;100.00;102357.81;10188558;28;20384;-65
2022/03/15 15:43:59;;;;;;;24.38;11.50;;;;;;;11.81;100.00;102354.56;10189197;28;20128;-65
2022/03/15 15:48:59;;;;;;;21.67;11.30;;;;;;;11.73;100.00;102357.94;10185038;28;20069;-64
2022/03/15 15:53:56;;;;;;;30.65;13.55;;;;;;;11.61;100.00;102360.22;10189114;28;20117;-64
2022/03/15 15:58:52;;;;;;;28.77;13.15;;;;;;;11.53;100.00;102365.19;10184716;28;20038;-65
2022/03/15 16:03:50;;;;;;;22.08;11.80;;;;;;;11.45;100.00;102367.72;10184312;28;20169;-65
2022/03/15 16:08:46;;;;;;;25.73;13.60;;;;;;;11.41;100.00;102372.91;10181849;28;20137;-64
2022/03/15 16:13:43;;;;;;;24.42;12.07;;;;;;;11.31;100.00;102373.00;10184517;28;20839;-64
2022/03/15 16:18:42;;;;;;;23.98;11.18;;;;;;;11.23;100.00;102381.78;10179521;28;20050;-64
2022/03/15 16:23:39;;;;;;;28.40;11.43;;;;;;;11.20;100.00;102393.31;10188147;28;20050;-64
2022/03/15 16:28:35;;;;;;;25.60;11.23;;;;;;;11.10;100.00;102400.47;10193675;28;20100;-64
2022/03/15 16:33:32;;;;;;;23.38;10.48;;;;;;;10.91;100.00;102402.19;10197405;28;20042;-64
2022/03/15 16:38:29;;;;;;;22.30;9.82;;;;;;;10.74;100.00;102406.06;10195616;28;20767;-64
2022/03/15 16:43:25;;;;;;;18.80;9.95;;;;;;;10.79;100.00;102404.41;10196269;28;20077;-64
2022/03/15 16:48:22;;;;;;;28.45;11.75;;;;;;;10.53;100.00;102418.13;10195976;28;20137;-64
2022/03/15 16:53:19;;;;;;;22.77;11.48;;;;;;;10.58;100.00;102409.91;10195670;28;20042;-64
2022/03/15 17:08:50;;;;;;;29.38;12.18;;;;;;;10.29;100.00;102420.63;10184239;28;20049;-63
2022/03/15 17:13:47;;;;;;;29.65;13.85;;;;;;;10.17;100.00;102425.53;10194381;28;20066;-66
2022/03/15 17:18:45;;;;;;;26.50;11.82;;;;;;;10.13;100.00;102425.25;10183602;28;20499;-63
2022/03/15 17:23:48;;;;;;;24.55;12.48;;;;;;;10.05;100.00;102423.88;10191295;28;20141;-66
2022/03/15 17:28:48;;;;;;;;;;;;;;;9.96;100.00;102430.16;10191124;28;20223;-63
2022/03/15 17:33:49;;;;;;;26.77;11.80;;;;;;;9.97;100.00;102429.06;10190021;28;19929;-66
2022/03/15 17:38:47;;;;;;;23.98;12.48;;;;;;;9.86;100.00;102436.41;10190753;28;20515;-63
2022/03/15 17:43:51;;;;;;;25.63;12.23;;;;;;;9.85;100.00;102445.72;10189751;28;20050;-64
2022/03/15 17:48:58;;;;;;;28.25;12.95;;;;;;;9.83;100.00;102443.25;10187354;28;20064;-64
2022/03/15 17:53:54;;;;;;;24.90;11.88;;;;;;;9.74;100.00;102458.50;10186627;28;20570;-64
2022/03/15 17:58:51;;;;;;;24.20;12.02;;;;;;;9.76;100.00;102464.53;10190576;28;20137;-64
2022/03/15 18:03:49;;;;;;;25.33;13.40;;;;;;;9.74;100.00;102477.63;10190561;28;20042;-64
2022/03/15 18:08:45;;;;;;;27.10;13.57;;;;;;;9.66;100.00;102467.25;10189486;28;20504;-65
2022/03/15 18:13:44;;;;;;;28.77;14.65;;;;;;;9.63;100.00;102475.97;10189834;28;20448;-63
2022/03/15 18:18:41;;;;;;;24.42;13.18;;;;;;;9.59;100.00;102480.34;10185058;28;20135;-65
2022/03/15 18:23:38;;;;;;;24.73;12.98;;;;;;;9.55;100.00;102482.78;10190291;28;20066;-63
2022/03/15 18:28:41;;;;;;;32.85;13.48;;;;;;;9.51;100.00;102480.84;10188553;28;20403;-65
2022/03/15 18:33:40;;;;;;;32.90;14.48;;;;;;;9.46;100.00;102481.66;10185086;28;20041;-65
2022/03/15 18:38:37;;;;;;;23.30;13.60;;;;;;;9.43;100.00;102483.00;10183943;28;20046;-65
2022/03/15 18:43:34;;;;;;;30.63;14.80;;;;;;;9.34;100.00;102490.06;10182815;28;20230;-65
2022/03/15 18:48:32;;;;;;;32.45;15.30;;;;;;;9.34;100.00;102500.16;10181492;28;20049;-65
2022/03/15 18:53:33;;;;;;;29.23;14.20;;;;;;;9.28;100.00;102491.13;10178243;28;20042;-65
2022/03/15 18:58:31;;;;;;;29.85;15.20;;;;;;;9.18;100.00;102482.88;10180043;28;20072;-65
2022/03/15 19:03:31;;;;;;;31.60;15.02;;;;;;;9.16;100.00;102493.25;10182963;28;20088;-65
2022/03/15 19:08:36;;;;;;;26.15;13.57;;;;;;;9.17;100.00;102473.88;10181797;28;20050;-65
2022/03/15 19:13:33;;;;;;;32.13;15.07;;;;;;;9.13;100.00;102477.41;10195513;28;20562;-65
2022/03/15 19:18:29;;;;;;;29.70;15.18;;;;;;;9.10;100.00;102472.47;10183106;28;20048;-68
2022/03/15 19:23:30;;;;;;;35.50;14.73;;;;;;;9.06;100.00;102473.00;10174617;28;20077;-64
2022/03/15 19:28:28;;;;;;;27.65;14.32;;;;;;;9.04;100.00;102480.63;10189328;28;20045;-65
2022/03/15 19:33:24;;;;;;;31.60;14.52;;;;;;;8.98;100.00;102478.97;10188405;28;20115;-65
2022/03/15 19:38:22;;;;;;;26.40;12.80;;;;;;;8.98;100.00;102492.63;10202889;28;20054;-65
2022/03/15 19:43:20;;;;;;;31.48;13.75;;;;;;;8.92;100.00;102482.75;10199217;28;20097;-65
2022/03/15 19:48:16;;;;;;;27.05;12.27;;;;;;;8.91;100.00;102491.19;10195815;28;20049;-65
2022/03/15 19:53:14;;;;;;;29.13;14.32;;;;;;;8.88;100.00;102492.53;10191197;28;20037;-65
2022/03/15 19:58:10;;;;;;;30.20;13.57;;;;;;;8.87;100.00;102495.53;10192993;28;20077;-65
2022/03/15 20:03:08;;;;;;;25.02;13.93;;;;;;;8.85;100.00;102495.78;10203258;28;20037;-65
2022/03/15 20:08:05;;;;;;;31.95;13.73;;;;;;;8.81;100.00;102491.94;10178311;28;20793;-65
2022/03/15 20:13:02;;;;;;;31.00;15.82;;;;;;;8.78;100.00;102492.47;10176326;28;20135;-65
2022/03/15 20:18:05;;;;;;;23.23;12.45;;;;;;;8.74;100.00;102480.44;10189448;28;20099;-65
2022/03/15 20:23:07;;;;;;;29.85;13.43;;;;;;;8.72;100.00;102483.41;10187988;28;20053;-65
2022/03/15 20:28:04;;;;;;;26.75;12.82;;;;;;;8.68;100.00;102476.88;10204865;28;20050;-65
2022/03/15 20:33:02;;;;;;;27.70;13.82;;;;;;;8.63;100.00;102480.38;10194068;28;20092;-65
2022/03/15 20:38:00;;;;;;;24.63;12.80;;;;;;;8.58;100.00;102483.03;10202191;28;20045;-65
2022/03/15 20:48:16;;;;;;;24.30;13.05;;;;;;;8.43;100.00;102470.13;10190656;28;20049;-65
2022/03/15 20:53:16;;;;;;;19.35;11.93;;;;;;;8.28;100.00;102466.41;10205238;28;20069;-65
2022/03/15 20:58:18;;;;;;;27.50;13.13;;;;;;;8.10;100.00;102460.28;10188865;28;20049;-65
2022/03/15 21:03:21;;;;;;;26.65;12.80;;;;;;;7.89;100.00;102470.16;10187528;28;20045;-65
2022/03/15 21:08:36;;;;;;;21.50;11.32;;;;;;;7.84;100.00;102467.38;10189462;28;20547;-64
2022/03/15 21:13:35;;;;;;;19.58;11.50;;;;;;;7.75;100.00;102467.03;10197767;28;20041;-63
2022/03/15 21:18:37;;;;;;;26.48;14.20;;;;;;;7.62;100.00;102483.75;10193786;28;20574;-69
2022/03/15 21:23:38;;;;;;;26.83;13.93;;;;;;;7.48;100.00;102485.22;10195731;28;20060;-66
2022/03/15 21:28:39;;;;;;;20.77;12.00;;;;;;;7.37;100.00;102490.50;10198183;28;20041;-66
2022/03/15 21:33:36;;;;;;;20.25;11.25;;;;;;;7.31;100.00;102493.41;10194757;28;20133;-66
2022/03/15 21:38:33;;;;;;;21.40;12.15;;;;;;;7.29;100.00;102499.13;10188005;28;20054;-66
2022/03/15 21:43:30;;;;;;;22.60;11.70;;;;;;;7.30;100.00;102495.31;10191909;28;20104;-66
2022/03/15 21:48:27;;;;;;;24.15;13.25;;;;;;;7.32;100.00;102498.63;10208163;28;20556;-66
2022/03/15 21:53:30;;;;;;;22.05;12.95;;;;;;;7.35;100.00;102492.66;10211863;28;20125;-66
2022/03/15 21:58:30;;;;;;;24.00;12.07;;;;;;;7.32;100.00;102487.72;10203120;28;20054;-66
2022/03/15 22:03:27;;;;;;;28.38;13.77;;;;;;;7.31;100.00;102488.81;10193091;28;20583;-64
2022/03/15 22:08:29;;;;;;;24.58;12.13;;;;;;;7.33;100.00;102489.41;10200462;28;20080;-64
2022/03/15 22:13:36;;;;;;;26.48;13.07;;;;;;;7.31;100.00;102496.97;10211335;28;20668;-65
2022/03/15 22:18:34;;;;;;;25.67;12.63;;;;;;;7.29;100.00;102484.72;10193473;28;20168;-65
2022/03/15 22:23:34;;;;;;;22.88;12.02;;;;;;;7.21;100.00;102490.56;10205178;28;20141;-64
2022/03/15 22:28:31;;;;;;;24.75;13.57;;;;;;;7.11;100.00;102480.38;10215187;28;20093;-64
2022/03/15 23:25:41;;;;;;;19.85;11.95;;;;;;;6.08;100.00;102524.94;10201715;28;20096;-64